Latest Coastal Weather Observations for Port Kembla Harbour

IDN60701

Issued at 3:51 pm EDT Wednesday 10 February 2016 (issued every 10 minutes, with the page automatically refreshed every 10 minutes)

About coastal observations | Map of coastal stations | Coastal observations for NSW | Marine services | Other Formats
Station Details ID: 068253 Name: PORT KEMBLA NTC AWS Lat: -34.47 Lon: 150.91 Height: 0.0 m
Data from the previous 72 hours. | See also: Recent months for locations in New South Wales
Date/Time
EDT
Temp

°C
Wind Pressure Rain
since 9am
mm
Weather Cloud Vis
km
Sea
Height
m
Swell
Dir
 
Speed
knots
Gust
knots
hPa Trend Height
m
Period
s
Dir
10/03:30pm 24.4 NE 13 18 1011.6 - - - - - - - - -
10/03:00pm 24.3 NE 15 20 1012.0 - - - - - - - - -
10/02:30pm 24.4 NE 13 17 1012.3 - - - - - - - - -
10/02:00pm 24.2 NE 12 17 1012.7 - - - - - - - - -
10/01:30pm 24.2 NE 14 18 1012.8 - - - - - - - - -
10/01:00pm 24.5 NE 12 17 1013.1 - - - - - - - - -
10/12:30pm 24.4 NE 11 15 1013.5 - - - - - - - - -
10/12:00pm 24.3 NE 11 15 1013.8 - - - - - - - - -
10/11:30am 24.1 NE 11 14 1014.6 - - - - - - - - -
10/11:00am 24.8 NNE 10 13 1015.0 - - - - - - - - -
10/10:30am 24.3 NNE 9 13 1015.3 - - - - - - - - -
10/10:00am 24.9 N 6 11 1015.4 - - - - - - - - -
10/09:30am 23.8 N 8 11 1015.5 - - - - - - - - -
10/09:00am 23.9 N 5 9 1015.6 - - - - - - - - -
10/08:30am 23.1 N 8 11 1015.6 - - - - - - - - -
10/08:00am 22.6 N 6 9 1015.6 - - - - - - - - -
10/07:30am 22.1 NNW 6 9 1015.5 - - - - - - - - -
10/07:00am 21.5 NNW 5 7 1015.4 - - - - - - - - -
10/06:30am 20.7 SW 1 3 1015.2 - - - - - - - - -
10/06:00am 20.7 WSW 2 3 1015.0 - - - - - - - - -
10/05:30am 21.4 NW 5 8 1014.8 - - - - - - - - -
10/05:00am 20.9 W 3 5 1015.0 - - - - - - - - -
10/04:30am 20.5 WSW 4 5 1015.1 - - - - - - - - -
10/04:00am 20.5 WSW 3 4 1015.2 - - - - - - - - -
10/03:30am 20.4 WSW 3 4 1015.5 - - - - - - - - -
10/03:00am 20.5 WSW 2 3 1015.8 - - - - - - - - -
10/02:30am 20.3 WSW 3 4 1016.1 - - - - - - - - -
10/02:00am 20.3 W 3 3 1016.4 - - - - - - - - -
10/01:30am 20.7 W 3 4 1016.8 - - - - - - - - -
10/01:00am 20.7 WSW 4 5 1017.1 - - - - - - - - -
10/12:30am 20.9 WSW 5 7 1017.6 - - - - - - - - -
10/12:00am 21.2 WSW 4 5 1017.9 - - - - - - - - -
 
Date/Time
EDT
Temp

°C
Wind Pressure Rain
since 9am
mm
Weather Cloud Vis
km
Sea
Height
m
Swell
Dir
 
Speed
knots
Gust
knots
hPa Trend Height
m
Period
s
Dir
09/11:30pm 21.1 WSW 5 7 1018.3 - - - - - - - - -
09/11:00pm 21.3 W 5 6 1018.6 - - - - - - - - -
09/10:30pm 22.5 SW 1 2 1018.8 - - - - - - - - -
09/10:00pm 22.4 ESE 1 2 1018.8 - - - - - - - - -
09/09:30pm 22.5 ESE 2 3 1018.8 - - - - - - - - -
09/09:00pm 22.5 ESE 2 4 1018.7 - - - - - - - - -
09/08:30pm 22.6 ESE 3 5 1018.5 - - - - - - - - -
09/08:00pm 22.7 ESE 4 6 1018.6 - - - - - - - - -
09/07:30pm 22.8 ESE 4 6 1018.5 - - - - - - - - -
09/07:00pm 22.9 ESE 5 7 1018.3 - - - - - - - - -
09/06:30pm 22.9 SE 6 8 1018.1 - - - - - - - - -
09/06:00pm 22.8 SE 6 9 1018.2 - - - - - - - - -
09/05:30pm 22.9 SE 7 9 1018.2 - - - - - - - - -
09/05:00pm 23.1 SE 7 11 1018.3 - - - - - - - - -
09/04:30pm 23.6 SE 8 11 1018.5 - - - - - - - - -
09/04:00pm 23.4 SE 9 13 1018.9 - - - - - - - - -
09/03:30pm 23.2 SE 10 14 1019.2 - - - - - - - - -
09/03:00pm 23.3 SE 10 14 1019.5 - - - - - - - - -
09/02:30pm 23.3 SE 9 14 1019.6 - - - - - - - - -
09/02:00pm 24.0 SE 9 16 1020.1 - - - - - - - - -
09/01:30pm 23.3 SE 10 15 1020.3 - - - - - - - - -
09/01:00pm 23.9 SE 8 15 1020.5 - - - - - - - - -
09/12:30pm 23.8 SSE 7 14 1020.7 - - - - - - - - -
09/12:00pm 24.2 SSE 7 13 1020.8 - - - - - - - - -
09/11:30am 23.4 SSE 7 15 1021.0 - - - - - - - - -
09/11:00am 24.3 S 8 16 1021.1 - - - - - - - - -
09/10:30am 23.8 SSW 8 17 1021.0 - - - - - - - - -
09/10:00am 23.8 S 7 14 1020.9 - - - - - - - - -
09/09:30am 23.5 S 7 12 1020.9 - - - - - - - - -
09/09:00am 23.4 S 6 12 1020.9 - - - - - - - - -
09/08:30am 22.9 S 6 13 1020.6 - - - - - - - - -
09/08:00am 22.5 S 6 13 1020.3 - - - - - - - - -
09/07:30am 22.5 S 6 15 1019.8 - - - - - - - - -
09/07:00am 22.4 S 6 13 1019.6 - - - - - - - - -
09/06:30am 22.4 S 6 13 1019.2 - - - - - - - - -
09/06:00am 22.5 SSE 7 12 1018.9 - - - - - - - - -
09/05:30am 21.8 SW 6 9 1018.5 - - - - - - - - -
09/05:00am 21.7 WSW 5 6 1018.3 - - - - - - - - -
09/04:30am 21.8 WSW 3 5 1018.1 - - - - - - - - -
09/04:00am 21.6 WSW 4 5 1018.3 - - - - - - - - -
09/03:30am 22.0 WSW 4 5 1018.3 - - - - - - - - -
09/03:00am 22.2 WSW 4 5 1018.5 - - - - - - - - -
09/02:30am 22.2 WSW 4 6 1018.6 - - - - - - - - -
09/02:00am 22.4 SW 5 7 1018.8 - - - - - - - - -
09/01:30am 22.0 WSW 5 6 1019.1 - - - - - - - - -
09/01:00am 22.3 WSW 5 7 1019.2 - - - - - - - - -
09/12:30am 22.1 SW 5 7 1019.3 - - - - - - - - -
09/12:00am 22.4 SW 6 7 1019.3 - - - - - - - - -
 
Date/Time
EDT
Temp

°C
Wind Pressure Rain
since 9am
mm
Weather Cloud Vis
km
Sea
Height
m
Swell
Dir
 
Speed
knots
Gust
knots
hPa Trend Height
m
Period
s
Dir
08/11:30pm 22.8 SW 5 7 1019.3 - - - - - - - - -
08/11:00pm 22.8 SW 6 10 1019.3 - - - - - - - - -
08/10:30pm 23.2 SW 6 9 1019.4 - - - - - - - - -
08/10:00pm 23.5 S 4 8 1019.3 - - - - - - - - -
08/09:30pm 23.4 S 3 5 1019.1 - - - - - - - - -
08/09:00pm 23.3 S 3 5 1018.7 - - - - - - - - -
08/08:30pm 23.4 SE 5 6 1018.4 - - - - - - - - -
08/08:00pm 23.4 ESE 4 6 1018.0 - - - - - - - - -
08/07:30pm 23.6 ESE 4 5 1017.8 - - - - - - - - -
08/07:00pm 23.6 SE 4 6 1017.5 - - - - - - - - -
08/06:30pm 23.6 ESE 5 7 1017.3 - - - - - - - - -
08/06:00pm 23.6 ESE 4 6 1017.1 - - - - - - - - -
08/05:30pm 23.8 ESE 4 6 1017.3 - - - - - - - - -
08/05:00pm 23.8 ESE 5 7 1017.5 - - - - - - - - -
08/04:30pm 23.9 ESE 4 7 1017.5 - - - - - - - - -
08/04:00pm 24.0 ESE 4 7 1017.6 - - - - - - - - -
08/03:30pm 24.0 E 3 5 1017.7 - - - - - - - - -
08/03:00pm 23.6 ESE 6 8 1017.9 - - - - - - - - -
08/02:30pm 23.6 ESE 6 7 1018.1 - - - - - - - - -
08/02:00pm 23.7 ESE 6 8 1018.2 - - - - - - - - -
08/01:30pm 23.8 ESE 5 8 1018.3 - - - - - - - - -
08/01:00pm 23.9 ESE 4 7 1018.4 - - - - - - - - -
08/12:30pm 23.6 ESE 4 7 1018.6 - - - - - - - - -
08/12:00pm 23.4 ESE 4 7 1018.7 - - - - - - - - -
08/11:30am 23.1 ESE 5 7 1018.8 - - - - - - - - -
08/11:00am 22.9 SE 5 6 1019.0 - - - - - - - - -
08/10:30am 22.9 SE 5 7 1019.1 - - - - - - - - -
08/10:00am 22.9 SE 5 6 1018.9 - - - - - - - - -
08/09:30am 22.9 SE 5 5 1018.7 - - - - - - - - -
08/09:00am 23.1 S 3 5 1018.7 - - - - - - - - -
08/08:30am 22.6 W 2 4 1018.6 - - - - - - - - -
08/08:00am 21.7 W 5 6 1018.4 - - - - - - - - -
08/07:30am 20.7 WSW 4 5 1018.1 - - - - - - - - -
08/07:00am 19.8 WSW 4 5 1018.0 - - - - - - - - -
08/06:30am 19.5 WSW 4 5 1017.8 - - - - - - - - -
08/06:00am 19.5 W 4 5 1017.6 - - - - - - - - -
08/05:30am 19.9 WSW 5 7 1017.4 - - - - - - - - -
08/05:00am 19.7 WSW 5 6 1017.3 - - - - - - - - -
08/04:30am 19.8 WSW 5 6 1017.3 - - - - - - - - -
08/04:00am 19.9 WSW 4 5 1017.2 - - - - - - - - -
08/03:30am 20.0 W 3 5 1017.3 - - - - - - - - -
08/03:00am 20.5 WSW 5 7 1017.6 - - - - - - - - -

Other Formats:

Comma delimited format used in spreadsheet applications
http://www.bom.gov.au/fwo/IDN60701/IDN60701.95745.axf

JavaScript Object Notation format (JSON) in row-major order
http://www.bom.gov.au/fwo/IDN60701/IDN60701.95745.json